createdAt,value
2023-02-12T00:04:34.266Z,3.4
2023-02-12T00:09:40.356Z,2.8
2023-02-12T00:14:46.490Z,2.8
2023-02-12T00:19:52.549Z,3.1
2023-02-12T00:24:58.642Z,2.8
2023-02-12T00:30:04.739Z,3.1
2023-02-12T00:35:10.858Z,3.1
2023-02-12T00:40:16.936Z,3.1
2023-02-12T00:45:23.094Z,3.1
2023-02-12T00:50:28.134Z,3.1
2023-02-12T00:55:34.230Z,3.4
2023-02-12T01:00:40.325Z,3.1
2023-02-12T01:05:46.426Z,3.1
2023-02-12T01:10:52.534Z,3.1
2023-02-12T01:15:58.628Z,3.1
2023-02-12T01:21:04.721Z,3.4
2023-02-12T01:26:10.847Z,3.1
2023-02-12T01:31:16.906Z,3.4
2023-02-12T01:36:23.056Z,3.1
2023-02-12T01:41:29.222Z,2.8
2023-02-12T01:46:35.198Z,3.1
2023-02-12T01:51:41.301Z,3.8
2023-02-12T01:56:46.412Z,3.1
2023-02-12T02:01:52.500Z,3.4
2023-02-12T02:06:58.591Z,3.1
2023-02-12T02:12:04.702Z,3.1
2023-02-12T02:17:10.804Z,4.4
2023-02-12T02:22:16.886Z,3.1
2023-02-12T02:27:22.972Z,3.1
2023-02-12T02:32:29.077Z,3.8
2023-02-12T02:37:35.175Z,4.4
2023-02-12T02:42:41.373Z,3.1
2023-02-12T02:47:47.357Z,3.1
2023-02-12T02:52:53.460Z,3.1
2023-02-12T02:57:59.578Z,3.1
2023-02-12T03:03:04.674Z,3.1
2023-02-12T03:08:10.759Z,3.1
2023-02-12T03:13:16.874Z,3.4
2023-02-12T03:18:22.965Z,3.1
2023-02-12T03:23:29.088Z,3.4
2023-02-12T03:28:35.169Z,3.1
2023-02-12T03:33:41.274Z,3.4
2023-02-12T03:38:47.346Z,3.1
2023-02-12T03:43:53.441Z,3.1
2023-02-12T03:48:59.532Z,3.1
2023-02-12T03:54:05.640Z,3.1
2023-02-12T04:04:17.876Z,3.4
2023-02-12T04:09:22.920Z,3.1
2023-02-12T04:14:29.028Z,3.1
2023-02-12T04:19:35.153Z,3.4
2023-02-12T04:24:41.229Z,3.1
2023-02-12T04:29:47.324Z,3.8
2023-02-12T04:34:53.427Z,3.8
2023-02-12T04:39:59.521Z,3.4
2023-02-12T04:45:05.616Z,3.4
2023-02-12T04:50:11.699Z,3.1
2023-02-12T04:55:17.817Z,3.1
2023-02-12T05:00:23.900Z,3.1
2023-02-12T05:05:30.589Z,3.4
2023-02-12T05:10:36.097Z,3.4
2023-02-12T05:15:41.198Z,3.4
2023-02-12T05:20:47.284Z,3.4
2023-02-12T05:25:53.399Z,3.4
2023-02-12T05:30:59.494Z,3.1
2023-02-12T05:36:05.596Z,4.1
2023-02-12T05:41:11.695Z,3.4
2023-02-12T05:46:17.783Z,3.1
2023-02-12T05:51:23.869Z,3.4
2023-02-12T05:56:29.998Z,3.4
2023-02-12T06:01:36.074Z,3.4
2023-02-12T06:06:42.169Z,3.8
2023-02-12T06:11:48.259Z,3.1
2023-02-12T06:16:54.380Z,3.8
2023-02-12T06:21:59.456Z,3.4
2023-02-12T06:27:05.547Z,3.8
2023-02-12T06:32:11.658Z,3.4
2023-02-12T06:37:17.749Z,3.4
2023-02-12T06:42:23.860Z,4.1
2023-02-12T06:47:29.960Z,3.4
2023-02-12T06:52:36.063Z,3.4
2023-02-12T06:57:42.131Z,3.8
2023-02-12T07:02:48.224Z,3.4
2023-02-12T07:07:54.332Z,3.4
2023-02-12T07:13:00.445Z,3.4
2023-02-12T07:18:06.522Z,3.4
2023-02-12T07:23:12.630Z,3.4
2023-02-12T07:28:17.749Z,3.8
2023-02-12T07:33:23.874Z,3.4
2023-02-12T07:38:30.203Z,3.4
2023-02-12T07:43:36.018Z,4.1
2023-02-12T07:48:42.113Z,3.4
2023-02-12T07:53:48.429Z,3.4
2023-02-12T07:58:54.315Z,3.1
2023-02-12T08:04:00.410Z,3.4
2023-02-12T08:09:06.505Z,3.4
2023-02-12T08:14:12.640Z,3.4
2023-02-12T08:19:18.768Z,3.8
2023-02-12T08:24:24.866Z,3.4
2023-02-12T08:29:31.045Z,3.8
2023-02-12T08:34:36.086Z,3.4
2023-02-12T08:39:42.088Z,3.8
2023-02-12T08:44:48.194Z,3.8
2023-02-12T08:49:54.327Z,3.4
2023-02-12T08:55:00.426Z,3.8
2023-02-12T09:00:06.474Z,3.4
2023-02-12T09:05:12.578Z,3.4
2023-02-12T09:10:18.760Z,3.8
2023-02-12T09:15:24.759Z,3.8
2023-02-12T09:20:30.856Z,3.8
2023-02-12T09:25:36.959Z,3.8
2023-02-12T09:30:43.040Z,4.1
2023-02-12T09:35:49.150Z,3.8
2023-02-12T09:40:54.256Z,3.4
2023-02-12T09:46:00.348Z,3.8
2023-02-12T09:51:06.446Z,3.4
2023-02-12T09:56:12.548Z,3.8
2023-02-12T10:01:18.648Z,4.1
2023-02-12T10:06:24.781Z,3.8
2023-02-12T10:11:30.843Z,3.8
2023-02-12T10:16:36.961Z,3.4
2023-02-12T10:21:43.122Z,4.1
2023-02-12T10:26:49.297Z,3.8
2023-02-12T10:31:55.403Z,4.1
2023-02-12T10:37:01.501Z,3.8
2023-02-12T10:42:06.569Z,3.8
2023-02-12T10:47:12.655Z,3.8
2023-02-12T10:52:18.769Z,3.8
2023-02-12T10:57:24.856Z,4.7
2023-02-12T11:02:30.927Z,3.8
2023-02-12T11:07:36.949Z,4.1
2023-02-12T11:12:43.171Z,4.1
2023-02-12T11:17:49.164Z,4.1
2023-02-12T11:22:55.381Z,4.1
2023-02-12T11:28:01.299Z,3.8
2023-02-12T11:33:07.547Z,4.1
2023-02-12T11:38:13.482Z,4.1
2023-02-12T11:43:19.652Z,4.1
2023-02-12T11:48:24.688Z,4.1
2023-02-12T11:53:30.789Z,4.1
2023-02-12T11:58:36.886Z,4.4
2023-02-12T12:03:43.021Z,4.4
2023-02-12T12:08:49.151Z,4.1
2023-02-12T12:13:55.175Z,4.1
2023-02-12T12:19:01.303Z,4.1
2023-02-12T12:24:07.384Z,4.1
2023-02-12T12:29:13.649Z,4.1
2023-02-12T12:34:19.700Z,4.1
2023-02-12T12:39:25.696Z,4.1
2023-02-12T12:44:31.804Z,4.4
2023-02-12T12:49:38.021Z,4.4
2023-02-12T12:54:42.939Z,4.1
2023-02-12T12:59:49.203Z,4.1
2023-02-12T13:04:55.349Z,4.4
2023-02-12T13:10:01.225Z,4.1
2023-02-12T13:15:07.345Z,4.1
2023-02-12T13:20:13.428Z,4.4
2023-02-12T13:25:19.509Z,4.4
2023-02-12T13:30:25.773Z,4.1
2023-02-12T13:35:31.781Z,4.4
2023-02-12T13:40:37.915Z,4.1
2023-02-12T13:45:43.901Z,4.7
2023-02-12T13:50:50.005Z,5.1
2023-02-12T13:55:56.108Z,4.4
2023-02-12T14:01:01.202Z,4.4
2023-02-12T14:06:07.354Z,4.4
2023-02-12T14:11:13.608Z,4.4
2023-02-12T14:16:19.521Z,4.7
2023-02-12T14:21:25.634Z,4.1
2023-02-12T14:26:31.806Z,4.7
2023-02-12T14:31:37.773Z,4.7
2023-02-12T14:36:43.865Z,4.4
2023-02-12T14:41:49.967Z,5.1
2023-02-12T14:46:56.063Z,4.7
2023-02-12T14:52:02.188Z,4.4
2023-02-12T14:57:08.319Z,4.7
2023-02-12T15:02:14.430Z,4.7
2023-02-12T15:07:19.460Z,4.4
2023-02-12T15:12:25.566Z,4.7
2023-02-12T15:17:31.635Z,4.7
2023-02-12T15:22:37.886Z,4.7
2023-02-12T15:27:43.829Z,4.4
2023-02-12T15:32:50.026Z,4.4
2023-02-12T15:37:56.015Z,5.4
2023-02-12T15:43:02.205Z,4.7
2023-02-12T15:48:08.407Z,4.7
2023-02-12T15:53:14.302Z,5.4
2023-02-12T15:58:20.412Z,4.7
2023-02-12T16:03:26.490Z,4.7
2023-02-12T16:08:32.594Z,5.4
2023-02-12T16:13:37.724Z,4.7
2023-02-12T16:18:43.813Z,5.4
2023-02-12T16:23:50.061Z,4.7
2023-02-12T16:28:55.992Z,5.1
2023-02-12T16:34:02.116Z,5.1
2023-02-12T16:39:08.196Z,4.7
2023-02-12T16:44:14.411Z,5.1
2023-02-12T16:49:20.393Z,5.4
2023-02-12T16:54:26.482Z,5.1
2023-02-12T16:59:32.718Z,5.1
2023-02-12T17:04:38.672Z,4.7
2023-02-12T17:09:44.764Z,5.1
2023-02-12T17:14:50.868Z,4.7
2023-02-12T17:19:55.985Z,4.7
2023-02-12T17:25:02.057Z,5.1
2023-02-12T17:30:08.168Z,4.7
2023-02-12T17:35:14.278Z,4.7
2023-02-12T17:40:20.359Z,4.7
2023-02-12T17:45:26.495Z,4.4
2023-02-12T17:50:32.619Z,4.7
2023-02-12T17:55:38.709Z,5.7
2023-02-12T18:00:44.732Z,4.4
2023-02-12T18:05:50.859Z,5.1
2023-02-12T18:10:56.979Z,5.1
2023-02-12T18:16:03.106Z,5.4
2023-02-12T18:21:09.129Z,4.7
2023-02-12T18:26:14.246Z,5.1
2023-02-12T18:31:20.320Z,4.7
2023-02-12T18:36:26.419Z,5.1
2023-02-12T18:41:32.537Z,4.7
2023-02-12T18:46:38.600Z,5.4
2023-02-12T18:51:44.729Z,5.7
2023-02-12T18:56:50.959Z,4.7
2023-02-12T19:01:56.904Z,5.1
2023-02-12T19:07:02.999Z,4.7
2023-02-12T19:12:09.086Z,4.7
2023-02-12T19:17:15.177Z,4.7
2023-02-12T19:22:21.488Z,4.7
2023-02-12T19:27:27.526Z,4.7
2023-02-12T19:32:32.528Z,4.7
2023-02-12T19:37:38.577Z,4.7
2023-02-12T19:42:44.710Z,4.7
2023-02-12T19:47:50.775Z,4.7
2023-02-12T19:52:56.875Z,5.1
2023-02-12T19:58:02.979Z,5.4
2023-02-12T20:03:09.081Z,4.7
2023-02-12T20:08:15.175Z,4.7
2023-02-12T20:13:21.271Z,4.7
2023-02-12T20:18:27.370Z,4.7
2023-02-12T20:23:33.466Z,4.7
2023-02-12T20:28:39.558Z,5.1
2023-02-12T20:33:45.643Z,5.1
2023-02-12T20:38:50.756Z,5.1
2023-02-12T20:43:56.855Z,5.1
2023-02-12T20:49:02.947Z,4.7
2023-02-12T20:54:09.043Z,5.1
2023-02-12T20:59:15.156Z,4.7
2023-02-12T21:04:21.403Z,5.1
2023-02-12T21:09:27.512Z,5.1
2023-02-12T21:14:33.527Z,4.7
2023-02-12T21:19:39.701Z,4.4
2023-02-12T21:24:45.797Z,5.1
2023-02-12T21:29:51.715Z,5.4
2023-02-12T21:34:57.964Z,4.7
2023-02-12T21:40:04.017Z,4.7
2023-02-12T21:45:09.124Z,4.7
2023-02-12T21:50:15.312Z,4.7
2023-02-12T21:55:21.353Z,4.7
2023-02-12T22:00:27.516Z,4.7
2023-02-12T22:05:33.433Z,4.7
2023-02-12T22:10:39.652Z,4.4
2023-02-12T22:15:45.732Z,5.1
2023-02-12T22:20:51.817Z,5.1
2023-02-12T22:25:57.934Z,5.4
2023-02-12T22:31:04.076Z,5.1
2023-02-12T22:36:10.114Z,4.7
2023-02-12T22:41:16.222Z,5.1
2023-02-12T22:46:22.328Z,5.4
2023-02-12T22:51:27.425Z,5.7
2023-02-12T22:56:33.566Z,4.7
2023-02-12T23:01:39.656Z,4.7
2023-02-12T23:06:45.788Z,4.7
2023-02-12T23:11:51.659Z,4.7
2023-02-12T23:16:57.944Z,5.1
2023-02-12T23:22:04.014Z,4.7
2023-02-12T23:27:10.101Z,5.1
2023-02-12T23:32:16.120Z,5.4
2023-02-12T23:37:22.146Z,4.7
2023-02-12T23:42:28.429Z,4.7
2023-02-12T23:47:34.540Z,4.7
2023-02-12T23:52:40.635Z,5.1
2023-02-12T23:57:45.735Z,5.7
